Time;durP1;ratioP1;P1;durP2;ratioP2;P2;SDS_P1;SDS_P2;PMS_P1;PMS_P2;Temp;Humidity;BMP_temperature;BMP_pressure;BME280_temperature;BME280_humidity;BME280_pressure;Samples;Min_cycle;Max_cycle;Signal;HPM_P1;HPM_P2
2022/07/22 00:00:44;;;;;;;22.35;3.40;;;15.90;99.90;;;;;;4736267;30;20136;-95
2022/07/22 00:03:13;;;;;;;23.33;3.88;;;15.90;99.90;;;;;;4735176;30;20059;-94
2022/07/22 00:05:39;;;;;;;14.07;3.15;;;15.90;99.90;;;;;;4734608;30;20058;-94
2022/07/22 00:08:04;;;;;;;16.55;3.47;;;15.90;99.90;;;;;;4736434;30;20409;-94
2022/07/22 00:10:40;;;;;;;13.20;3.25;;;16.00;99.90;;;;;;4736208;30;20501;-95
2022/07/22 00:13:05;;;;;;;19.98;4.13;;;16.00;99.90;;;;;;4735574;30;20485;-94
2022/07/22 00:15:34;;;;;;;21.15;4.13;;;16.10;99.90;;;;;;4736022;30;20051;-94
2022/07/22 00:18:00;;;;;;;15.98;3.65;;;16.10;99.90;;;;;;4723452;30;20516;-95
2022/07/22 00:20:28;;;;;;;19.42;3.58;;;16.10;99.90;;;;;;4717799;30;20102;-95
2022/07/22 00:22:54;;;;;;;14.18;3.10;;;16.10;99.90;;;;;;4733328;30;20060;-94
2022/07/22 00:25:20;;;;;;;16.85;2.80;;;16.20;99.90;;;;;;4717661;30;20056;-95
2022/07/22 00:27:46;;;;;;;11.40;2.78;;;16.20;99.90;;;;;;4718285;30;20052;-96
2022/07/22 00:30:16;;;;;;;14.13;2.80;;;16.20;99.90;;;;;;4718151;30;20059;-94
2022/07/22 00:32:42;;;;;;;17.52;3.17;;;16.00;99.90;;;;;;4718443;30;20056;-95
2022/07/22 00:35:08;;;;;;;16.33;2.88;;;16.20;99.90;;;;;;4716684;30;20066;-96
2022/07/22 00:37:33;;;;;;;19.88;3.00;;;16.20;99.90;;;;;;4718501;30;20101;-94
2022/07/22 00:39:59;;;;;;;15.30;2.60;;;16.20;99.90;;;;;;4718539;30;20052;-94
2022/07/22 00:42:25;;;;;;;19.45;2.92;;;16.10;99.90;;;;;;4732449;30;20048;-94
2022/07/22 00:44:51;;;;;;;15.05;2.72;;;16.20;99.90;;;;;;4718285;30;20052;-94
2022/07/22 00:47:16;;;;;;;14.80;2.35;;;16.20;99.90;;;;;;4717478;30;20724;-93
2022/07/22 00:49:42;;;;;;;17.63;2.60;;;16.20;99.90;;;;;;4749474;30;20155;-95
2022/07/22 00:52:08;;;;;;;10.90;2.40;;;16.10;99.90;;;;;;4735743;30;20505;-94
2022/07/22 00:54:36;;;;;;;15.38;2.70;;;16.10;99.90;;;;;;4734773;30;20091;-95
2022/07/22 00:57:02;;;;;;;12.93;2.85;;;16.10;99.90;;;;;;4736090;30;20048;-94
2022/07/22 00:59:27;;;;;;;13.43;2.20;;;16.10;99.90;;;;;;4735462;30;20094;-94
2022/07/22 01:01:53;;;;;;;14.25;2.42;;;16.20;99.90;;;;;;4735483;30;20574;-94
2022/07/22 01:04:19;;;;;;;17.55;2.40;;;16.00;99.90;;;;;;4735811;30;20505;-94
2022/07/22 01:06:48;;;;;;;8.52;1.83;;;16.00;99.90;;;;;;4735623;30;20104;-93
2022/07/22 01:09:14;;;;;;;12.25;1.88;;;16.00;99.90;;;;;;4734815;30;20059;-95
2022/07/22 01:11:40;;;;;;;11.40;2.20;;;15.90;99.90;;;;;;4735465;30;20051;-95
2022/07/22 01:14:06;;;;;;;10.20;2.05;;;15.90;99.90;;;;;;4734808;30;20058;-94
2022/07/22 01:16:32;;;;;;;18.90;2.72;;;15.90;99.90;;;;;;4730350;30;20043;-95
2022/07/22 01:18:58;;;;;;;8.93;1.92;;;15.90;99.90;;;;;;4718700;30;20052;-95
2022/07/22 01:21:24;;;;;;;13.65;2.38;;;15.90;99.90;;;;;;4725167;30;20532;-95
2022/07/22 01:23:52;;;;;;;15.15;1.92;;;15.90;99.90;;;;;;4752820;30;20085;-96
2022/07/22 01:26:21;;;;;;;11.27;2.38;;;15.90;99.90;;;;;;4753232;30;20421;-95
2022/07/22 01:28:46;;;;;;;11.48;1.95;;;15.90;99.90;;;;;;4753412;30;20051;-95
2022/07/22 01:31:12;;;;;;;12.80;2.40;;;16.00;99.90;;;;;;4752135;30;20051;-94
2022/07/22 01:33:38;;;;;;;12.30;2.17;;;16.00;99.90;;;;;;4752930;30;20111;-96
2022/07/22 01:36:04;;;;;;;9.43;1.80;;;16.00;99.90;;;;;;4738917;30;20087;-94
2022/07/22 01:38:30;;;;;;;9.80;1.40;;;16.00;99.90;;;;;;4737693;30;20052;-96
2022/07/22 01:40:56;;;;;;;11.73;1.73;;;16.00;99.90;;;;;;4738375;30;20479;-96
2022/07/22 01:43:25;;;;;;;7.28;1.27;;;16.00;99.90;;;;;;4753240;30;20060;-95
2022/07/22 01:45:52;;;;;;;10.07;1.98;;;16.00;99.90;;;;;;4737663;30;20417;-95
2022/07/22 01:48:18;;;;;;;16.27;1.80;;;16.10;99.90;;;;;;4738207;30;20059;-96
2022/07/22 01:50:45;;;;;;;11.02;1.60;;;16.00;99.90;;;;;;4752788;30;20145;-96
2022/07/22 01:53:22;;;;;;;8.57;1.70;;;16.00;99.90;;;;;;4738578;30;20505;-96
2022/07/22 01:55:48;;;;;;;10.77;1.70;;;15.80;99.90;;;;;;4738144;30;20054;-95
2022/07/22 01:58:14;;;;;;;9.02;1.92;;;15.90;99.90;;;;;;4737547;30;20067;-96
2022/07/22 02:00:40;;;;;;;7.18;1.38;;;15.90;99.90;;;;;;4737033;30;20493;-95
2022/07/22 02:03:06;;;;;;;12.30;2.05;;;15.90;99.90;;;;;;4737817;30;20115;-95
2022/07/22 02:05:33;;;;;;;10.82;1.85;;;15.90;99.90;;;;;;4734469;30;20058;-96
2022/07/22 02:08:06;;;;;;;9.27;2.03;;;15.90;99.90;;;;;;4735498;30;20059;-94
2022/07/22 02:10:32;;;;;;;10.98;1.92;;;15.90;99.90;;;;;;4720177;30;20063;-94
2022/07/22 02:13:00;;;;;;;11.65;1.80;;;15.90;99.90;;;;;;4720251;30;20052;-94
2022/07/22 02:15:27;;;;;;;9.25;1.48;;;15.90;99.90;;;;;;4720150;30;20121;-95
2022/07/22 02:17:53;;;;;;;10.50;2.38;;;15.90;99.90;;;;;;4720444;30;20048;-95
2022/07/22 02:20:19;;;;;;;17.23;1.95;;;15.90;99.90;;;;;;4720090;30;20048;-94
2022/07/22 02:22:48;;;;;;;9.02;1.60;;;15.90;99.90;;;;;;4720673;30;20471;-94
2022/07/22 02:25:14;;;;;;;9.88;1.52;;;15.90;99.90;;;;;;4720211;30;20052;-92
2022/07/22 02:27:41;;;;;;;9.95;1.63;;;15.90;99.90;;;;;;4719695;30;20426;-94
2022/07/22 02:30:07;;;;;;;10.80;1.55;;;15.90;99.90;;;;;;4720101;30;20106;-93
2022/07/22 02:32:33;;;;;;;8.88;1.65;;;15.90;99.90;;;;;;4719682;30;20059;-94
2022/07/22 02:35:02;;;;;;;9.10;1.40;;;15.90;99.90;;;;;;4719935;30;20109;-94
2022/07/22 02:37:28;;;;;;;9.95;1.80;;;15.90;99.90;;;;;;4719830;30;20139;-93
2022/07/22 02:39:53;;;;;;;11.73;2.13;;;15.90;99.90;;;;;;4719224;30;20175;-94
2022/07/22 02:42:19;;;;;;;8.80;1.58;;;15.90;99.90;;;;;;4720078;30;20048;-94
2022/07/22 02:44:45;;;;;;;13.45;1.85;;;15.90;99.90;;;;;;4720052;30;20063;-93
2022/07/22 02:47:11;;;;;;;6.25;1.58;;;15.90;99.90;;;;;;4719232;30;20501;-93
2022/07/22 02:49:36;;;;;;;9.00;1.58;;;15.90;99.90;;;;;;4719787;30;20067;-94
2022/07/22 02:52:02;;;;;;;16.05;2.10;;;15.90;99.90;;;;;;4734119;30;20091;-94
2022/07/22 02:54:28;;;;;;;8.32;1.92;;;15.70;99.90;;;;;;4725235;30;20105;-94
2022/07/22 02:56:53;;;;;;;14.20;1.90;;;16.00;99.90;;;;;;4734139;30;20395;-94
2022/07/22 02:59:19;;;;;;;13.93;2.03;;;15.90;99.90;;;;;;4734088;30;20048;-94
2022/07/22 03:01:45;;;;;;;10.05;1.70;;;16.00;99.90;;;;;;4733102;30;20098;-94
2022/07/22 03:04:11;;;;;;;11.43;1.83;;;16.00;99.90;;;;;;4733856;30;20052;-94
2022/07/22 03:06:39;;;;;;;12.40;1.75;;;15.80;99.90;;;;;;4734383;30;20051;-94
2022/07/22 03:09:05;;;;;;;10.40;1.88;;;16.00;99.90;;;;;;4733193;30;20048;-95
2022/07/22 03:11:31;;;;;;;15.80;1.98;;;16.00;99.90;;;;;;4734048;30;20063;-94
2022/07/22 03:13:57;;;;;;;6.63;1.30;;;16.00;99.90;;;;;;4734193;30;20497;-94
2022/07/22 03:16:25;;;;;;;10.57;1.58;;;16.00;99.90;;;;;;4732420;30;20067;-94
2022/07/22 03:18:51;;;;;;;6.15;1.50;;;16.00;99.90;;;;;;4733779;30;20056;-94
2022/07/22 03:21:16;;;;;;;14.13;2.42;;;16.00;99.90;;;;;;4733082;30;20054;-94
2022/07/22 03:23:42;;;;;;;12.35;1.67;;;16.00;99.90;;;;;;4733998;30;20060;-94
2022/07/22 03:26:08;;;;;;;6.05;1.45;;;16.00;99.90;;;;;;4733503;30;20139;-93
2022/07/22 03:28:33;;;;;;;9.52;1.50;;;16.00;99.90;;;;;;4733423;30;20062;-93
2022/07/22 03:30:59;;;;;;;8.32;1.70;;;16.00;99.90;;;;;;4733109;30;20091;-94
2022/07/22 03:33:25;;;;;;;9.10;1.60;;;15.90;99.90;;;;;;4733056;30;20072;-93
2022/07/22 03:35:51;;;;;;;12.00;1.83;;;15.90;99.90;;;;;;4733342;30;20040;-94
2022/07/22 03:38:17;;;;;;;10.77;1.85;;;15.90;99.90;;;;;;4733750;30;20048;-93
2022/07/22 03:40:42;;;;;;;8.85;1.73;;;15.90;99.90;;;;;;4733067;30;20087;-94
2022/07/22 03:43:08;;;;;;;11.70;1.60;;;15.90;99.90;;;;;;4734377;30;20058;-93
2022/07/22 03:45:34;;;;;;;5.75;1.38;;;15.90;99.90;;;;;;4735632;30;20082;-93
2022/07/22 03:48:00;;;;;;;6.18;1.38;;;15.90;99.90;;;;;;4736596;30;20067;-94
2022/07/22 03:50:26;;;;;;;11.95;1.40;;;15.90;99.90;;;;;;4735613;30;20060;-93
2022/07/22 03:52:51;;;;;;;13.88;1.45;;;15.90;99.90;;;;;;4735935;30;20059;-94
2022/07/22 03:55:17;;;;;;;10.18;1.58;;;15.90;99.90;;;;;;4750331;30;20055;-93
2022/07/22 03:57:43;;;;;;;10.35;1.60;;;15.90;99.90;;;;;;4749709;30;20067;-94
2022/07/22 04:00:09;;;;;;;13.82;1.55;;;15.90;99.90;;;;;;4750198;30;20054;-95
2022/07/22 04:02:34;;;;;;;12.95;1.50;;;15.90;99.90;;;;;;4736705;30;20117;-93
2022/07/22 04:05:00;;;;;;;12.35;1.65;;;15.80;99.90;;;;;;4750208;30;20349;-94
2022/07/22 04:07:26;;;;;;;12.48;1.92;;;15.80;99.90;;;;;;4750582;30;20060;-94
2022/07/22 04:09:52;;;;;;;11.70;1.95;;;15.80;99.90;;;;;;4736204;30;20055;-93
2022/07/22 04:12:18;;;;;;;13.20;1.90;;;15.80;99.90;;;;;;4735842;30;20366;-94
2022/07/22 04:14:43;;;;;;;12.15;1.70;;;15.80;99.90;;;;;;4736405;30;20067;-92
2022/07/22 04:17:09;;;;;;;10.35;1.60;;;15.80;99.90;;;;;;4735428;30;20062;-93
2022/07/22 04:19:55;;;;;;;7.78;1.45;;;15.80;99.90;;;;;;4735367;30;20059;-93
2022/07/22 04:22:21;;;;;;;11.85;1.75;;;15.80;99.90;;;;;;4750207;30;20051;-92
2022/07/22 04:24:48;;;;;;;8.43;1.40;;;15.70;99.90;;;;;;4735858;30;20327;-94
2022/07/22 04:27:14;;;;;;;12.52;1.58;;;15.80;99.90;;;;;;4736092;30;20043;-92
2022/07/22 04:29:39;;;;;;;7.32;1.45;;;15.80;99.90;;;;;;4736278;30;20434;-93
2022/07/22 04:32:05;;;;;;;7.68;1.58;;;15.80;99.90;;;;;;4732648;30;20445;-93
2022/07/22 04:34:31;;;;;;;9.68;1.63;;;15.80;99.90;;;;;;4735209;30;20090;-92
2022/07/22 04:36:58;;;;;;;7.32;1.45;;;15.80;99.90;;;;;;4735537;30;20090;-95
2022/07/22 04:39:23;;;;;;;12.45;1.67;;;15.80;99.90;;;;;;4750124;30;20663;-93
2022/07/22 04:41:49;;;;;;;15.07;1.67;;;15.80;99.90;;;;;;4750477;30;20142;-93
2022/07/22 04:44:15;;;;;;;8.73;1.33;;;15.90;99.90;;;;;;4735810;30;20059;-92
2022/07/22 04:46:41;;;;;;;8.00;1.80;;;15.80;99.90;;;;;;4734179;30;20068;-94
2022/07/22 04:49:06;;;;;;;10.18;1.63;;;15.90;99.90;;;;;;4735452;30;20052;-93
2022/07/22 04:51:32;;;;;;;11.82;1.88;;;15.90;99.90;;;;;;4735755;30;20086;-94
2022/07/22 04:54:01;;;;;;;9.73;2.03;;;15.90;99.90;;;;;;4735208;30;20059;-93
2022/07/22 04:56:27;;;;;;;9.23;1.30;;;15.90;99.90;;;;;;4738488;30;20059;-92
2022/07/22 04:58:52;;;;;;;9.43;1.38;;;16.00;99.90;;;;;;4739728;30;20062;-94
2022/07/22 05:01:18;;;;;;;7.30;1.10;;;15.90;99.90;;;;;;4738235;30;20505;-94
2022/07/22 05:03:44;;;;;;;12.15;1.80;;;15.90;99.90;;;;;;4753940;30;20055;-94
2022/07/22 05:06:10;;;;;;;9.90;1.88;;;15.90;99.90;;;;;;4739157;30;20070;-95
2022/07/22 05:08:35;;;;;;;7.53;1.45;;;15.90;99.90;;;;;;4738875;30;20146;-94
2022/07/22 05:11:02;;;;;;;8.18;1.50;;;15.90;99.90;;;;;;4739060;30;20087;-93
2022/07/22 05:13:28;;;;;;;8.63;1.30;;;15.90;99.90;;;;;;4738630;30;20521;-93
2022/07/22 05:15:53;;;;;;;7.07;1.75;;;15.90;99.90;;;;;;4738607;30;20110;-94
2022/07/22 05:18:19;;;;;;;6.38;1.17;;;15.90;99.90;;;;;;4738519;30;20051;-94
2022/07/22 05:20:45;;;;;;;5.35;1.25;;;15.90;99.90;;;;;;4739132;30;20071;-93
2022/07/22 05:23:11;;;;;;;8.75;1.40;;;16.00;99.90;;;;;;4735776;30;20110;-93
2022/07/22 05:25:36;;;;;;;7.18;1.60;;;16.00;99.90;;;;;;4735504;30;20477;-93
2022/07/22 05:28:02;;;;;;;7.78;1.13;;;16.00;99.90;;;;;;4736157;30;20056;-93
2022/07/22 05:30:34;;;;;;;9.70;1.23;;;16.00;99.90;;;;;;4734394;30;20056;-93
2022/07/22 05:32:59;;;;;;;5.32;1.20;;;16.00;99.90;;;;;;4736341;30;20099;-94
2022/07/22 05:35:25;;;;;;;7.90;1.35;;;16.00;99.90;;;;;;4734158;30;20083;-94
2022/07/22 05:38:05;;;;;;;11.18;1.48;;;16.10;99.90;;;;;;4740314;30;20044;-94
2022/07/22 05:40:31;;;;;;;5.65;1.05;;;16.10;99.90;;;;;;4738120;30;20493;-93
2022/07/22 05:42:58;;;;;;;10.15;1.60;;;16.10;99.90;;;;;;4733014;30;20519;-94
2022/07/22 05:45:24;;;;;;;7.20;1.10;;;16.10;99.90;;;;;;4734567;30;20158;-93
2022/07/22 05:47:50;;;;;;;6.53;1.10;;;16.10;99.90;;;;;;4731637;30;20525;-93
2022/07/22 05:50:15;;;;;;;6.38;1.42;;;16.10;99.90;;;;;;4732340;30;20467;-93
2022/07/22 05:52:42;;;;;;;6.65;1.08;;;16.10;99.90;;;;;;4743078;30;20083;-91
2022/07/22 05:55:08;;;;;;;4.35;1.30;;;16.20;99.90;;;;;;4736166;30;20142;-92
2022/07/22 05:57:34;;;;;;;10.85;1.38;;;16.20;99.90;;;;;;4751791;30;20184;-92
2022/07/22 06:00:00;;;;;;;6.47;1.13;;;16.20;99.90;;;;;;4739482;30;20505;-92
2022/07/22 06:02:25;;;;;;;6.78;1.50;;;16.20;99.90;;;;;;4739466;30;20051;-93
2022/07/22 06:04:51;;;;;;;7.80;1.52;;;16.20;99.90;;;;;;4739587;30;20068;-93
2022/07/22 06:07:17;;;;;;;8.98;1.88;;;16.30;99.90;;;;;;4737545;30;20044;-93
2022/07/22 06:09:43;;;;;;;6.60;1.00;;;16.30;99.90;;;;;;4734592;30;20046;-92
2022/07/22 06:12:09;;;;;;;6.85;1.52;;;16.30;99.90;;;;;;4748884;30;20061;-92
2022/07/22 06:14:36;;;;;;;6.53;1.08;;;16.40;99.90;;;;;;4738946;30;20060;-92
2022/07/22 06:17:02;;;;;;;8.48;1.50;;;16.40;99.90;;;;;;4736826;30;20508;-93
2022/07/22 06:19:29;;;;;;;13.77;1.63;;;16.40;99.90;;;;;;4738908;30;20531;-94
2022/07/22 06:21:55;;;;;;;7.70;1.25;;;16.50;99.90;;;;;;4739154;30;20079;-94
2022/07/22 06:24:28;;;;;;;9.65;1.23;;;16.50;99.90;;;;;;4743520;30;20059;-96
2022/07/22 06:26:54;;;;;;;10.40;1.55;;;16.50;99.90;;;;;;4760980;24;20039;-91
2022/07/22 06:29:20;;;;;;;6.53;1.38;;;16.60;99.90;;;;;;4743524;30;20063;-89
2022/07/22 06:31:46;;;;;;;8.13;1.35;;;16.60;99.90;;;;;;4746767;30;20109;-90
2022/07/22 06:34:12;;;;;;;8.20;1.15;;;16.70;99.90;;;;;;4748381;30;20067;-90
2022/07/22 06:36:37;;;;;;;8.75;1.40;;;16.90;99.90;;;;;;4736196;30;20054;-90
2022/07/22 06:39:03;;;;;;;9.40;1.20;;;16.80;99.90;;;;;;4723999;30;20067;-90
2022/07/22 06:41:29;;;;;;;8.32;1.30;;;16.90;99.90;;;;;;4751906;30;20459;-89
2022/07/22 06:43:54;;;;;;;9.63;1.25;;;16.90;99.90;;;;;;4753826;30;20047;-90
2022/07/22 06:46:20;;;;;;;7.03;0.95;;;17.10;99.90;;;;;;4751010;30;20397;-90
2022/07/22 06:48:46;;;;;;;11.52;1.33;;;17.10;99.90;;;;;;4749755;30;20131;-90
2022/07/22 06:51:11;;;;;;;5.05;0.95;;;17.20;99.90;;;;;;4729208;30;20058;-89
2022/07/22 06:53:38;;;;;;;5.40;1.15;;;17.20;99.90;;;;;;4731072;30;20055;-89
2022/07/22 06:56:04;;;;;;;7.03;1.25;;;17.30;99.90;;;;;;4730005;30;20055;-90
2022/07/22 06:58:30;;;;;;;7.68;1.30;;;17.40;99.90;;;;;;4741502;30;20052;-90
2022/07/22 07:00:56;;;;;;;12.65;1.42;;;17.50;99.90;;;;;;4735382;30;20057;-90
2022/07/22 07:03:22;;;;;;;6.80;0.95;;;17.50;99.90;;;;;;4751482;30;20078;-89
2022/07/22 07:05:48;;;;;;;9.55;1.10;;;17.50;99.90;;;;;;4747796;30;20532;-88
2022/07/22 07:08:14;;;;;;;7.00;0.88;;;17.50;99.90;;;;;;4751177;30;20083;-89
2022/07/22 07:10:39;;;;;;;6.47;1.10;;;17.70;99.90;;;;;;4734078;30;20516;-89
2022/07/22 07:13:05;;;;;;;6.43;1.08;;;17.70;99.90;;;;;;4750447;30;20523;-89
2022/07/22 07:15:31;;;;;;;8.88;1.10;;;17.70;99.90;;;;;;4734568;30;20060;-89
2022/07/22 07:17:57;;;;;;;5.07;0.95;;;17.80;99.90;;;;;;4737385;30;20047;-89
2022/07/22 07:20:24;;;;;;;5.07;0.60;;;17.80;99.90;;;;;;4736611;30;20495;-89
2022/07/22 07:22:50;;;;;;;4.88;0.60;;;17.90;99.90;;;;;;4751132;30;20401;-90
2022/07/22 07:25:16;;;;;;;5.70;1.33;;;18.00;99.90;;;;;;4751092;30;20056;-90
2022/07/22 07:27:42;;;;;;;6.70;1.17;;;17.90;99.90;;;;;;4751153;30;20142;-89
2022/07/22 07:30:09;;;;;;;8.23;0.90;;;17.90;99.90;;;;;;4749595;30;20147;-89
2022/07/22 07:32:36;;;;;;;7.38;0.90;;;17.90;99.90;;;;;;4737027;30;20044;-91
2022/07/22 07:35:03;;;;;;;4.18;0.80;;;17.90;99.90;;;;;;4737489;30;20055;-90
2022/07/22 07:37:29;;;;;;;7.93;0.70;;;17.90;99.90;;;;;;4735874;30;20059;-90
2022/07/22 07:39:56;;;;;;;6.85;1.05;;;17.90;99.90;;;;;;4750752;30;20096;-89
2022/07/22 07:42:22;;;;;;;4.28;0.73;;;17.90;99.90;;;;;;4735009;30;20062;-89
2022/07/22 07:44:48;;;;;;;4.68;0.82;;;18.00;99.90;;;;;;4736588;30;20048;-89
2022/07/22 07:47:17;;;;;;;6.50;0.80;;;18.10;99.90;;;;;;4750402;30;20561;-88
2022/07/22 07:49:44;;;;;;;8.13;0.98;;;18.10;99.90;;;;;;4749838;30;20055;-88
2022/07/22 07:52:12;;;;;;;5.38;0.70;;;18.10;99.90;;;;;;4750785;30;20067;-89
2022/07/22 07:54:39;;;;;;;8.38;0.88;;;18.10;99.90;;;;;;4732205;30;20048;-89
2022/07/22 07:57:06;;;;;;;4.20;0.70;;;18.10;99.90;;;;;;4732081;30;20052;-89
2022/07/22 07:59:32;;;;;;;5.93;1.10;;;18.20;99.90;;;;;;4732530;30;20113;-90
2022/07/22 08:01:58;;;;;;;3.88;0.70;;;18.30;99.90;;;;;;4733657;30;20049;-89
2022/07/22 08:04:25;;;;;;;4.13;0.85;;;18.20;99.90;;;;;;4717389;30;20391;-90
2022/07/22 08:06:51;;;;;;;11.50;2.58;;;18.20;99.90;;;;;;4719518;30;20048;-89
2022/07/22 08:09:17;;;;;;;3.78;0.70;;;18.20;99.90;;;;;;4718579;30;20071;-88
2022/07/22 08:11:42;;;;;;;6.38;0.88;;;18.20;99.90;;;;;;4731358;30;20051;-89
2022/07/22 08:14:08;;;;;;;5.60;1.20;;;18.30;99.90;;;;;;4735060;30;20063;-88
2022/07/22 08:16:37;;;;;;;5.35;1.23;;;18.30;99.90;;;;;;4717160;30;20059;-90
2022/07/22 08:19:04;;;;;;;3.95;0.70;;;18.30;99.90;;;;;;4732398;30;20573;-90
2022/07/22 08:21:30;;;;;;;9.23;1.23;;;18.30;99.90;;;;;;4732987;30;20048;-90
2022/07/22 08:23:56;;;;;;;5.88;0.80;;;18.30;99.90;;;;;;4732387;30;20059;-89
2022/07/22 08:26:22;;;;;;;4.25;0.70;;;18.30;99.90;;;;;;4733440;30;20498;-90
2022/07/22 08:28:47;;;;;;;4.30;0.90;;;18.30;99.90;;;;;;4715056;30;20080;-89
2022/07/22 08:31:13;;;;;;;4.85;0.75;;;18.30;99.90;;;;;;4719002;30;20466;-90
2022/07/22 08:33:42;;;;;;;4.97;0.82;;;18.30;99.90;;;;;;4732603;30;20635;-89
2022/07/22 08:36:11;;;;;;;8.45;0.88;;;18.30;99.90;;;;;;4718918;30;20052;-89
2022/07/22 08:38:37;;;;;;;6.30;1.08;;;18.20;99.90;;;;;;4731235;30;20556;-89
2022/07/22 08:41:04;;;;;;;5.18;0.90;;;18.20;99.90;;;;;;4717424;30;20052;-88
2022/07/22 08:43:30;;;;;;;5.93;1.33;;;18.00;99.90;;;;;;4724631;30;20139;-89
2022/07/22 08:45:57;;;;;;;5.25;0.60;;;18.00;99.90;;;;;;4737988;30;20475;-89
2022/07/22 08:48:25;;;;;;;6.03;0.85;;;18.00;99.90;;;;;;4736965;30;20098;-88
2022/07/22 08:51:01;;;;;;;6.13;0.82;;;18.00;99.90;;;;;;4735854;30;20051;-91
2022/07/22 08:53:27;;;;;;;7.28;1.10;;;18.10;99.90;;;;;;4730848;30;20054;-89
2022/07/22 08:55:53;;;;;;;7.70;1.13;;;18.00;99.90;;;;;;4741454;30;20055;-89
2022/07/22 08:58:19;;;;;;;6.18;0.85;;;18.00;99.90;;;;;;4732169;30;20047;-90
2022/07/22 09:00:45;;;;;;;11.95;1.30;;;17.90;99.90;;;;;;4741677;30;20051;-89
2022/07/22 09:03:22;;;;;;;5.60;0.90;;;17.90;99.90;;;;;;4728952;30;20792;-90
2022/07/22 09:05:51;;;;;;;5.38;1.13;;;17.90;99.90;;;;;;4740034;30;20058;-90
2022/07/22 09:08:29;;;;;;;7.82;1.20;;;18.00;99.90;;;;;;4726779;30;20051;-91
2022/07/22 09:10:54;;;;;;;10.07;1.50;;;18.00;99.90;;;;;;4721118;30;20067;-90
2022/07/22 09:13:22;;;;;;;12.35;1.02;;;18.00;99.90;;;;;;4732872;30;20047;-89
2022/07/22 09:15:51;;;;;;;6.15;0.70;;;18.10;99.90;;;;;;4717567;30;20053;-89
2022/07/22 09:18:17;;;;;;;7.78;1.00;;;18.00;99.90;;;;;;4732800;30;20052;-90
2022/07/22 09:20:44;;;;;;;12.77;1.30;;;18.00;99.90;;;;;;4734581;30;20064;-90
2022/07/22 09:23:13;;;;;;;7.43;1.02;;;18.00;99.90;;;;;;4732842;30;20084;-90
2022/07/22 09:25:40;;;;;;;6.43;1.10;;;18.10;99.90;;;;;;4762017;30;20048;-90
2022/07/22 09:28:06;;;;;;;13.23;1.00;;;18.30;99.90;;;;;;4762920;30;20090;-90
2022/07/22 09:30:35;;;;;;;6.43;0.85;;;18.40;99.90;;;;;;4758883;30;20395;-90
2022/07/22 09:33:01;;;;;;;5.03;1.00;;;18.50;99.90;;;;;;4736181;30;20052;-90
2022/07/22 09:35:28;;;;;;;11.20;1.02;;;18.60;99.90;;;;;;4730910;30;20485;-90
2022/07/22 09:37:58;;;;;;;7.65;1.00;;;18.70;99.90;;;;;;4732648;30;20112;-90
2022/07/22 09:40:27;;;;;;;8.02;0.77;;;18.70;99.90;;;;;;4731348;30;20055;-91
2022/07/22 09:42:56;;;;;;;5.25;0.88;;;18.80;99.90;;;;;;4760263;30;20466;-89
2022/07/22 09:45:24;;;;;;;4.13;0.70;;;18.80;99.90;;;;;;4768964;30;20059;-90
2022/07/22 09:47:50;;;;;;;11.63;1.23;;;18.80;99.90;;;;;;4755025;30;20051;-91
2022/07/22 09:50:23;;;;;;;10.60;1.05;;;18.70;99.90;;;;;;4755061;30;20610;-91
2022/07/22 09:52:52;;;;;;;8.73;1.10;;;18.60;99.90;;;;;;4758019;30;20117;-90
2022/07/22 09:55:21;;;;;;;11.02;1.10;;;18.60;99.90;;;;;;4755192;30;20119;-90
2022/07/22 09:57:48;;;;;;;6.13;0.90;;;18.50;99.90;;;;;;4755896;30;20047;-90
2022/07/22 10:00:16;;;;;;;10.52;0.90;;;18.40;99.90;;;;;;4755377;30;20149;-90
2022/07/22 10:02:47;;;;;;;5.82;1.02;;;18.40;99.90;;;;;;4770652;30;20066;-90
2022/07/22 10:05:16;;;;;;;4.85;0.70;;;18.50;99.90;;;;;;4755555;30;20072;-90
2022/07/22 10:07:49;;;;;;;5.57;0.82;;;18.60;99.90;;;;;;4756497;30;20051;-93
2022/07/22 10:10:18;;;;;;;4.75;0.80;;;18.70;99.90;;;;;;4748258;30;20060;-91
2022/07/22 10:12:47;;;;;;;5.30;0.80;;;18.80;99.90;;;;;;4739698;30;20158;-91
2022/07/22 10:15:13;;;;;;;7.68;1.05;;;19.00;99.90;;;;;;4737075;30;20062;-91
2022/07/22 10:17:45;;;;;;;6.78;0.90;;;19.00;99.90;;;;;;4737407;30;20048;-91
2022/07/22 10:20:12;;;;;;;5.38;1.05;;;19.10;99.90;;;;;;4739759;30;20054;-91
2022/07/22 10:22:39;;;;;;;3.45;0.77;;;19.30;99.90;;;;;;4738063;30;20446;-90
2022/07/22 10:25:06;;;;;;;12.88;0.85;;;19.40;99.90;;;;;;4742356;30;20043;-91
2022/07/22 10:27:53;;;;;;;4.32;0.80;;;19.50;99.90;;;;;;4743370;30;20067;-90
2022/07/22 10:30:31;;;;;;;2.75;0.70;;;19.50;99.90;;;;;;4736500;30;20055;-90
2022/07/22 10:33:04;;;;;;;3.30;0.50;;;19.70;99.90;;;;;;4737284;30;20164;-90
2022/07/22 10:38:13;;;;;;;9.52;0.93;;;19.90;99.90;;;;;;4768516;30;20063;-96
2022/07/22 10:40:47;;;;;;;10.02;0.80;;;19.90;99.90;;;;;;4754757;30;20163;-96
2022/07/22 10:46:06;;;;;;;8.25;0.85;;;19.90;99.90;;;;;;4750897;30;20131;-85
2022/07/22 10:58:32;;;;;;;6.82;0.90;;;20.00;99.90;;;;;;4766373;30;20052;-89
2022/07/22 11:00:59;;;;;;;3.67;1.00;;;19.90;99.90;;;;;;4737938;30;20146;-88
2022/07/22 11:03:25;;;;;;;4.15;0.90;;;19.80;99.90;;;;;;4752569;30;20060;-89
2022/07/22 11:05:51;;;;;;;5.40;0.80;;;19.80;99.90;;;;;;4755014;30;20105;-90
2022/07/22 11:08:21;;;;;;;3.28;0.50;;;19.90;99.90;;;;;;4751299;30;20450;-88
2022/07/22 11:10:49;;;;;;;3.35;0.68;;;19.90;99.90;;;;;;4752061;30;20464;-89
2022/07/22 11:13:37;;;;;;;4.00;0.75;;;19.90;99.90;;;;;;4736146;30;20048;-88
2022/07/22 11:16:16;;;;;;;8.65;0.65;;;20.00;99.90;;;;;;4732440;30;20055;-91
2022/07/22 11:18:47;;;;;;;7.40;0.77;;;20.00;99.90;;;;;;4741631;30;20138;-90
2022/07/22 11:21:16;;;;;;;1.95;0.30;;;20.00;99.90;;;;;;4748317;30;20485;-91
2022/07/22 11:23:43;;;;;;;4.80;0.73;;;20.00;99.90;;;;;;4727060;30;20094;-90
2022/07/22 11:26:13;;;;;;;5.30;0.52;;;19.90;99.90;;;;;;4727297;30;20048;-91
2022/07/22 11:28:42;;;;;;;4.45;0.73;;;19.90;99.90;;;;;;4736162;30;20052;-89
2022/07/22 11:31:09;;;;;;;2.50;0.50;;;19.90;99.90;;;;;;4734751;30;20059;-91
2022/07/22 11:33:35;;;;;;;3.22;0.57;;;19.80;99.90;;;;;;4722704;30;20056;-90
2022/07/22 11:36:04;;;;;;;5.28;0.50;;;19.60;99.90;;;;;;4739981;30;20409;-92
2022/07/22 11:38:47;;;;;;;6.78;0.40;;;19.50;99.90;;;;;;4749201;30;20052;-91
2022/07/22 11:41:14;;;;;;;;;;;19.40;99.90;;;;;;4747047;30;20052;-91
2022/07/22 11:43:44;;;;;;;3.22;0.50;;;19.30;99.90;;;;;;4748825;30;19933;-91
2022/07/22 11:46:12;;;;;;;4.50;0.50;;;19.30;99.90;;;;;;4744591;30;20048;-91
2022/07/22 11:48:38;;;;;;;2.42;0.50;;;19.20;99.90;;;;;;4737035;30;20044;-92
2022/07/22 11:51:06;;;;;;;7.75;0.50;;;19.30;99.90;;;;;;4736622;30;20076;-91
2022/07/22 11:53:32;;;;;;;2.72;0.82;;;19.30;99.90;;;;;;4735003;30;20051;-89
2022/07/22 11:55:59;;;;;;;4.47;0.40;;;19.40;99.90;;;;;;4736163;30;20056;-88
2022/07/22 11:58:35;;;;;;;3.38;0.25;;;19.50;99.90;;;;;;4738116;30;20066;-89
2022/07/22 12:01:01;;;;;;;1.80;0.30;;;19.60;99.90;;;;;;4750526;30;20048;-89
2022/07/22 12:03:28;;;;;;;6.00;0.50;;;19.50;99.90;;;;;;4736093;30;20047;-89
2022/07/22 12:05:55;;;;;;;7.05;0.50;;;19.60;99.90;;;;;;4736844;30;20063;-89
2022/07/22 12:08:21;;;;;;;2.17;0.30;;;19.70;99.90;;;;;;4738240;30;20142;-91
2022/07/22 12:10:47;;;;;;;2.38;0.30;;;19.80;99.90;;;;;;4751092;30;20142;-90
2022/07/22 12:13:14;;;;;;;2.30;0.30;;;19.80;99.90;;;;;;4736605;30;20470;-90
2022/07/22 12:15:40;;;;;;;2.45;0.40;;;20.00;99.90;;;;;;4736161;30;20059;-93
2022/07/22 12:18:18;;;;;;;3.05;0.40;;;20.10;99.90;;;;;;4736946;30;20059;-91
2022/07/22 12:20:45;;;;;;;2.70;0.30;;;20.20;99.90;;;;;;4747264;30;20048;-91
2022/07/22 12:23:12;;;;;;;1.95;0.40;;;20.30;99.90;;;;;;4734186;30;20047;-89
2022/07/22 12:25:53;;;;;;;2.88;0.30;;;20.50;99.90;;;;;;4732894;30;20114;-90
2022/07/22 12:28:18;;;;;;;3.10;0.22;;;20.60;99.90;;;;;;4733197;30;20139;-90
2022/07/22 12:30:45;;;;;;;2.28;0.65;;;20.70;99.90;;;;;;4718277;30;20190;-89
2022/07/22 12:33:16;;;;;;;5.70;0.47;;;20.70;99.90;;;;;;4718390;30;20386;-91
2022/07/22 12:35:43;;;;;;;2.22;0.20;;;20.80;99.90;;;;;;4733132;30;20441;-90
2022/07/22 12:38:09;;;;;;;2.15;0.30;;;20.90;99.90;;;;;;4735113;30;20136;-91
2022/07/22 12:40:37;;;;;;;2.45;0.30;;;20.90;99.90;;;;;;4733630;30;20507;-90
2022/07/22 12:43:05;;;;;;;3.10;0.28;;;21.00;99.90;;;;;;4733993;30;20048;-92
2022/07/22 12:45:34;;;;;;;1.38;0.32;;;21.10;99.90;;;;;;4732552;30;20052;-91
2022/07/22 12:48:13;;;;;;;6.03;0.50;;;21.00;99.90;;;;;;4735295;30;20052;-90
2022/07/22 12:50:44;;;;;;;6.25;0.57;;;20.90;99.90;;;;;;4733363;30;20048;-94
2022/07/22 12:53:14;;;;;;;4.75;0.50;;;20.70;99.90;;;;;;4734122;30;20060;-96
2022/07/22 12:55:44;;;;;;;3.35;0.50;;;20.40;99.90;;;;;;4733920;30;20052;-93
2022/07/22 12:58:10;;;;;;;3.10;0.50;;;20.30;99.90;;;;;;4702891;30;20130;-91